RPLL/MNL METAR and TAF weather

Enter ICAO airport designator
Station Type Date Time Source
RPLL METAR 2022/07/03 14:00 UTC NOAA

RPLL 031400Z 14004KT 080V240 9999 FEW025 SCT100 BKN300 30/26 Q1009 NOSIG RMK A2980


Station Type Date Time Source
RPLL Decoded METAR 2022/07/03 14:00 UTC NOAA

Ninoy Aquino Inter-National Airport, Philippines (RPLL) 14-31N 121-00E 15M
Jul 03, 2022 - 10:00 AM EDT / 2022.07.03 1400 UTC
Wind: from the SE (140 degrees) at 5 MPH (4 KT) (direction variable):0
Visibility: greater than 7 mile(s):0
Sky conditions: mostly cloudy
Temperature: 86 F (30 C)
Heat index: 99.3 F (37.4 C):1
Dew Point: 78 F (26 C)
Relative Humidity: 79%
Pressure (altimeter): 29.80 in. Hg (1009 hPa)
ob: RPLL 031400Z 14004KT 080V240 9999 FEW025 SCT100 BKN300 30/26 Q1009 NOSIG RMK A2980
cycle: 14

Station Type Date Time Source
RPLL TAF 2022/07/03 12:03 UTC NOAA

TAF RPLL 031100Z 0312/0418 12006KT 9999 FEW025 SCT100 TX34/0406Z TN27/0321Z
TEMPO 0312/0318 14004KT -SHRA FEW022CB SCT023 BKN090
TEMPO 0318/0324 VRB03KT FEW025 BKN100

Example: see airport list